createdAt,value
2018-05-04T00:00:33.379Z,74.20
2018-05-04T00:02:34.391Z,74.20
2018-05-04T00:04:35.371Z,74.80
2018-05-04T00:06:36.374Z,75.00
2018-05-04T00:08:37.331Z,74.90
2018-05-04T00:10:39.255Z,75.00
2018-05-04T00:12:40.823Z,75.20
2018-05-04T00:14:41.900Z,75.00
2018-05-04T00:16:43.628Z,74.80
2018-05-04T00:18:45.043Z,75.00
2018-05-04T00:20:46.022Z,75.00
2018-05-04T00:22:47.834Z,74.90
2018-05-04T00:24:49.677Z,74.90
2018-05-04T00:26:51.605Z,74.50
2018-05-04T00:28:52.927Z,74.50
2018-05-04T00:30:54.387Z,75.40
2018-05-04T00:32:55.451Z,75.30
2018-05-04T00:34:56.748Z,75.50
2018-05-04T00:36:58.253Z,75.30
2018-05-04T00:38:59.219Z,75.30
2018-05-04T00:41:00.444Z,75.00
2018-05-04T00:43:01.717Z,75.30
2018-05-04T00:45:03.898Z,75.30
2018-05-04T00:47:05.160Z,75.30
2018-05-04T00:49:06.221Z,75.40
2018-05-04T00:51:07.230Z,75.50
2018-05-04T00:53:08.262Z,75.70
2018-05-04T00:55:09.283Z,75.70
2018-05-04T00:57:10.345Z,75.30
2018-05-04T00:59:11.364Z,75.00
2018-05-04T01:01:12.379Z,74.90
2018-05-04T01:03:13.763Z,75.20
2018-05-04T01:05:14.739Z,75.20
2018-05-04T01:07:15.692Z,75.10
2018-05-04T01:09:17.063Z,74.70
2018-05-04T01:11:18.032Z,74.70
2018-05-04T01:13:18.984Z,75.10
2018-05-04T01:15:19.967Z,75.40
2018-05-04T01:17:20.959Z,75.60
2018-05-04T01:19:21.954Z,75.30
2018-05-04T01:21:23.070Z,75.70
2018-05-04T01:23:24.273Z,75.70
2018-05-04T01:25:25.227Z,75.70
2018-05-04T01:27:26.619Z,75.60
2018-05-04T01:29:27.606Z,75.60
2018-05-04T01:31:29.260Z,76.00
2018-05-04T01:33:30.244Z,76.00
2018-05-04T01:35:31.215Z,75.90
2018-05-04T01:37:32.544Z,76.20
2018-05-04T01:39:33.574Z,76.20
2018-05-04T01:41:34.543Z,76.50
2018-05-04T01:43:36.262Z,76.20
2018-05-04T01:45:37.271Z,76.30
2018-05-04T01:47:38.242Z,76.40
2018-05-04T01:49:39.251Z,76.60
2018-05-04T01:51:40.247Z,76.50
2018-05-04T01:53:41.474Z,76.50
2018-05-04T01:55:42.830Z,76.10
2018-05-04T01:57:43.807Z,76.10
2018-05-04T01:59:44.815Z,76.10
2018-05-04T02:01:45.781Z,75.90
2018-05-04T02:03:46.719Z,75.90
2018-05-04T02:05:47.679Z,75.90
2018-05-04T02:07:49.303Z,75.10
2018-05-04T02:09:50.295Z,75.10
2018-05-04T02:11:51.263Z,75.10
2018-05-04T02:13:52.662Z,75.70
2018-05-04T02:15:53.859Z,76.40
2018-05-04T02:17:54.846Z,76.50
2018-05-04T02:19:55.884Z,76.40
2018-05-04T02:21:56.872Z,76.60
2018-05-04T02:23:57.846Z,76.40
2018-05-04T02:25:58.864Z,76.30
2018-05-04T02:28:00.221Z,76.40
2018-05-04T02:30:01.211Z,76.40
2018-05-04T02:32:02.204Z,76.00
2018-05-04T02:34:03.247Z,75.70
2018-05-04T02:36:04.269Z,75.60
2018-05-04T02:38:05.271Z,75.40
2018-05-04T02:40:06.262Z,75.90
2018-05-04T02:42:07.226Z,77.40
2018-05-04T02:44:08.227Z,78.80
2018-05-04T02:46:09.208Z,80.10
2018-05-04T02:48:10.606Z,80.40
2018-05-04T02:50:11.994Z,80.40
2018-05-04T02:52:13.350Z,82.60
2018-05-04T02:54:14.702Z,83.00
2018-05-04T02:56:15.714Z,82.80
2018-05-04T02:58:16.698Z,83.20
2018-05-04T03:00:17.668Z,84.30
2018-05-04T03:02:18.674Z,84.60
2018-05-04T03:04:19.628Z,84.60
2018-05-04T03:06:20.631Z,83.90
2018-05-04T03:08:21.695Z,83.30
2018-05-04T03:10:22.642Z,82.00
2018-05-04T03:12:23.586Z,80.80
2018-05-04T03:14:24.549Z,80.10
2018-05-04T03:16:26.085Z,79.80
2018-05-04T03:18:27.421Z,79.60
2018-05-04T03:20:28.559Z,79.60
2018-05-04T03:22:29.584Z,80.20
2018-05-04T03:24:30.574Z,81.20
2018-05-04T03:26:31.692Z,82.60
2018-05-04T03:28:33.014Z,81.90
2018-05-04T03:30:33.965Z,81.80
2018-05-04T03:32:35.310Z,80.90
2018-05-04T03:34:36.693Z,80.00
2018-05-04T03:36:37.670Z,79.90
2018-05-04T03:38:38.673Z,79.40
2018-05-04T03:40:40.498Z,79.00
2018-05-04T03:42:41.454Z,78.60
2018-05-04T03:44:42.440Z,78.80
2018-05-04T03:46:43.849Z,78.90
2018-05-04T03:48:44.823Z,78.90
2018-05-04T03:50:46.146Z,78.70
2018-05-04T03:52:47.143Z,78.70
2018-05-04T03:54:48.173Z,78.80
2018-05-04T03:56:49.179Z,78.90
2018-05-04T03:59:02.717Z,78.80
2018-05-04T04:01:16.182Z,78.80
2018-05-04T04:03:29.606Z,78.90
2018-05-04T04:05:30.661Z,78.60
2018-05-04T04:07:31.614Z,79.70
2018-05-04T04:09:32.819Z,79.50
2018-05-04T04:11:33.818Z,78.70
2018-05-04T04:13:34.798Z,78.50
2018-05-04T04:15:35.813Z,78.40
2018-05-04T04:17:36.819Z,78.60
2018-05-04T04:19:37.782Z,79.00
2018-05-04T04:21:38.767Z,79.10
2018-05-04T04:23:40.100Z,78.90
2018-05-04T04:25:41.661Z,78.80
2018-05-04T04:27:43.122Z,78.30
2018-05-04T04:29:44.122Z,78.30
2018-05-04T04:31:45.117Z,78.80
2018-05-04T04:33:46.167Z,78.50
2018-05-04T04:35:47.187Z,78.30
2018-05-04T04:37:48.193Z,78.50
2018-05-04T04:39:49.174Z,78.40
2018-05-04T04:41:50.278Z,78.40
2018-05-04T04:43:51.258Z,78.40
2018-05-04T04:45:52.256Z,78.10
2018-05-04T04:47:53.222Z,78.10
2018-05-04T04:49:54.161Z,78.10
2018-05-04T04:51:55.105Z,77.90
2018-05-04T04:53:56.070Z,79.70
2018-05-04T04:55:57.786Z,77.70
2018-05-04T04:57:59.035Z,77.70
2018-05-04T05:00:00.115Z,77.90
2018-05-04T05:02:01.126Z,78.40
2018-05-04T05:04:02.557Z,78.80
2018-05-04T05:06:03.597Z,78.80
2018-05-04T05:08:04.632Z,78.90
2018-05-04T05:10:06.007Z,78.40
2018-05-04T05:12:06.971Z,78.40
2018-05-04T05:14:11.042Z,78.50
2018-05-04T05:16:12.358Z,78.60
2018-05-04T05:18:13.298Z,78.60
2018-05-04T05:20:14.278Z,78.40
2018-05-04T05:22:15.853Z,78.70
2018-05-04T05:24:16.813Z,78.80
2018-05-04T05:26:17.790Z,79.00
2018-05-04T05:28:18.785Z,79.10
2018-05-04T05:30:19.735Z,79.10
2018-05-04T05:32:21.074Z,79.00
2018-05-04T05:34:22.394Z,78.50
2018-05-04T05:36:23.342Z,78.50
2018-05-04T05:38:24.659Z,78.60
2018-05-04T05:40:25.612Z,78.00
2018-05-04T05:42:26.653Z,77.80
2018-05-04T05:44:27.869Z,78.30
2018-05-04T05:46:28.810Z,78.00
2018-05-04T05:48:29.778Z,77.70
2018-05-04T05:50:31.103Z,77.20
2018-05-04T05:52:32.082Z,77.20
2018-05-04T05:54:33.239Z,77.90
2018-05-04T05:56:34.567Z,77.20
2018-05-04T05:58:35.585Z,77.20
2018-05-04T06:00:36.486Z,77.20
2018-05-04T06:02:37.431Z,76.20
2018-05-04T06:04:38.858Z,76.40
2018-05-04T06:06:41.941Z,76.40
2018-05-04T06:08:42.907Z,75.90
2018-05-04T06:10:44.605Z,75.20
2018-05-04T06:12:45.629Z,75.20
2018-05-04T06:14:46.587Z,75.60
2018-05-04T06:16:48.145Z,75.10
2018-05-04T06:18:49.683Z,74.60
2018-05-04T06:20:50.733Z,74.50
2018-05-04T06:22:51.802Z,73.90
2018-05-04T06:24:52.830Z,74.70
2018-05-04T06:26:54.177Z,74.50
2018-05-04T06:28:55.525Z,74.30
2018-05-04T06:30:56.954Z,74.30
2018-05-04T06:32:58.319Z,73.00
2018-05-04T06:34:59.410Z,73.00
2018-05-04T06:37:00.438Z,73.20
2018-05-04T06:39:02.017Z,72.50
2018-05-04T06:41:03.443Z,72.00
2018-05-04T06:43:06.983Z,72.00
2018-05-04T06:45:08.609Z,71.90
2018-05-04T06:47:09.962Z,71.30
2018-05-04T06:49:11.308Z,70.00
2018-05-04T06:51:12.610Z,70.00
2018-05-04T06:53:13.815Z,70.50
2018-05-04T06:55:14.786Z,71.10
2018-05-04T06:57:15.767Z,70.00
2018-05-04T06:59:17.392Z,69.20
2018-05-04T07:01:18.761Z,67.50
2018-05-04T07:03:20.455Z,67.50
2018-05-04T07:05:21.394Z,69.10
2018-05-04T07:07:22.345Z,67.80
2018-05-04T07:09:23.328Z,65.70
2018-05-04T07:11:25.227Z,66.70
2018-05-04T07:13:26.221Z,65.80
2018-05-04T07:15:27.162Z,66.90
2018-05-04T07:17:28.822Z,65.50
2018-05-04T07:19:30.938Z,63.20
2018-05-04T07:21:32.397Z,61.70
2018-05-04T07:23:34.452Z,61.90
2018-05-04T07:25:35.401Z,62.00
2018-05-04T07:27:36.334Z,63.30
2018-05-04T07:29:38.080Z,62.10
2018-05-04T07:31:39.070Z,60.20
2018-05-04T07:33:40.039Z,59.20
2018-05-04T07:35:42.341Z,60.10
2018-05-04T07:37:43.311Z,60.10
2018-05-04T07:39:44.258Z,59.80
2018-05-04T07:41:45.679Z,59.80
2018-05-04T07:43:46.634Z,59.80
2018-05-04T07:45:47.576Z,59.80
2018-05-04T07:47:48.902Z,57.20
2018-05-04T07:49:49.889Z,57.20
2018-05-04T07:51:50.826Z,57.50
2018-05-04T07:53:53.681Z,56.90
2018-05-04T07:55:55.310Z,57.50
2018-05-04T07:57:56.619Z,58.30
2018-05-04T07:59:57.579Z,58.30
2018-05-04T08:01:58.628Z,57.80
2018-05-04T08:03:59.952Z,58.50
2018-05-04T08:06:00.898Z,58.50
2018-05-04T08:08:02.102Z,57.60
2018-05-04T08:10:03.276Z,58.40
2018-05-04T08:12:04.358Z,58.50
2018-05-04T08:14:05.427Z,57.20
2018-05-04T08:16:06.367Z,57.20
2018-05-04T08:18:07.309Z,58.50
2018-05-04T08:20:08.687Z,57.60
2018-05-04T08:22:09.663Z,58.20
2018-05-04T08:24:10.598Z,56.90
2018-05-04T08:26:11.549Z,56.10
2018-05-04T08:28:12.561Z,56.30
2018-05-04T08:30:14.018Z,56.40
2018-05-04T08:32:14.968Z,56.70
2018-05-04T08:34:15.924Z,56.50
2018-05-04T08:36:17.240Z,56.30
2018-05-04T08:38:18.191Z,56.30
2018-05-04T08:40:19.527Z,55.40
2018-05-04T08:42:20.517Z,55.40
2018-05-04T08:44:21.481Z,54.90
2018-05-04T08:46:22.449Z,56.00
2018-05-04T08:48:23.833Z,56.50
2018-05-04T08:50:25.137Z,54.70
2018-05-04T08:52:26.461Z,54.20
2018-05-04T08:54:27.418Z,54.20
2018-05-04T08:56:28.739Z,54.60
2018-05-04T08:58:29.688Z,54.60
2018-05-04T09:00:31.298Z,52.40
2018-05-04T09:02:32.262Z,52.40
2018-05-04T09:04:33.573Z,51.70
2018-05-04T09:06:34.689Z,51.70
2018-05-04T09:08:35.634Z,50.60
2018-05-04T09:10:36.590Z,51.10
2018-05-04T09:12:37.561Z,49.90
2018-05-04T09:14:38.884Z,49.40
2018-05-04T09:16:39.841Z,49.40
2018-05-04T09:18:40.986Z,48.90
2018-05-04T09:20:41.969Z,49.10
2018-05-04T09:22:42.915Z,49.00
2018-05-04T09:24:43.891Z,47.60
2018-05-04T09:26:44.846Z,48.80
2018-05-04T09:28:45.803Z,46.50
2018-05-04T09:30:46.769Z,46.80
2018-05-04T09:32:47.736Z,47.60
2018-05-04T09:34:48.686Z,48.00
2018-05-04T09:36:49.646Z,47.80
2018-05-04T09:38:50.585Z,47.00
2018-05-04T09:40:51.518Z,44.40
2018-05-04T09:42:52.465Z,44.20
2018-05-04T09:44:53.407Z,44.40
2018-05-04T09:46:54.757Z,42.70
2018-05-04T09:48:56.155Z,43.30
2018-05-04T09:50:57.012Z,43.30
2018-05-04T09:52:58.575Z,44.40
2018-05-04T09:55:00.290Z,44.20
2018-05-04T09:57:01.242Z,44.20
2018-05-04T09:59:02.206Z,42.60
2018-05-04T10:01:03.530Z,43.20
2018-05-04T10:03:04.481Z,43.20
2018-05-04T10:05:05.974Z,41.40
2018-05-04T10:07:06.926Z,41.40
2018-05-04T10:09:07.951Z,41.20
2018-05-04T10:11:09.230Z,40.90
2018-05-04T10:13:10.542Z,42.00
2018-05-04T10:15:11.558Z,42.00
2018-05-04T10:17:12.632Z,42.20
2018-05-04T10:19:13.618Z,42.00
2018-05-04T10:21:14.570Z,39.50
2018-05-04T10:23:15.853Z,39.60
2018-05-04T10:25:16.806Z,39.00
2018-05-04T10:27:18.114Z,40.30
2018-05-04T10:29:19.145Z,40.30
2018-05-04T10:31:20.396Z,40.60
2018-05-04T10:33:21.366Z,41.20
2018-05-04T10:35:22.298Z,40.00
2018-05-04T10:37:23.253Z,40.00
2018-05-04T10:39:24.862Z,40.10
2018-05-04T10:41:26.207Z,39.00
2018-05-04T10:43:27.527Z,38.30
2018-05-04T10:45:28.498Z,38.30
2018-05-04T10:47:29.447Z,37.90
2018-05-04T10:49:30.394Z,37.30
2018-05-04T10:51:31.368Z,36.90
2018-05-04T10:53:32.515Z,37.50
2018-05-04T10:55:33.486Z,37.50
2018-05-04T10:57:34.433Z,38.20
2018-05-04T10:59:35.366Z,36.90
2018-05-04T11:01:36.301Z,36.80
2018-05-04T11:03:37.237Z,36.60
2018-05-04T11:05:38.874Z,36.30
2018-05-04T11:07:39.838Z,34.90
2018-05-04T11:09:40.789Z,34.30
2018-05-04T11:11:41.905Z,34.70
2018-05-04T11:13:53.802Z,36.00
2018-05-04T11:15:54.770Z,36.40
2018-05-04T11:17:55.975Z,38.00
2018-05-04T11:19:57.328Z,37.20
2018-05-04T11:21:58.322Z,38.00
2018-05-04T11:23:59.275Z,37.30
2018-05-04T11:26:00.234Z,36.20
2018-05-04T11:28:01.182Z,35.60
2018-05-04T11:30:02.242Z,35.20
2018-05-04T11:32:03.550Z,35.50
2018-05-04T11:34:04.493Z,35.50
2018-05-04T11:36:05.463Z,36.20
2018-05-04T11:38:07.069Z,37.30
2018-05-04T11:40:08.053Z,36.20
2018-05-04T11:42:09.050Z,35.60
2018-05-04T11:44:10.025Z,34.90
2018-05-04T11:46:11.018Z,34.40
2018-05-04T11:48:12.038Z,34.40
2018-05-04T11:50:12.998Z,34.00
2018-05-04T11:52:14.043Z,33.80
2018-05-04T11:54:15.474Z,33.50
2018-05-04T11:56:16.534Z,33.50
2018-05-04T11:58:17.858Z,33.30
2018-05-04T12:00:18.821Z,33.30
2018-05-04T12:02:20.325Z,33.00
2018-05-04T12:04:28.618Z,32.90
2018-05-04T12:06:29.592Z,32.90
2018-05-04T12:08:30.913Z,33.10
2018-05-04T12:10:31.869Z,33.10
2018-05-04T12:12:33.210Z,32.20
2018-05-04T12:14:34.542Z,31.30
2018-05-04T12:16:35.631Z,31.30
2018-05-04T12:18:36.583Z,32.60
2018-05-04T12:20:37.638Z,31.50
2018-05-04T12:22:38.983Z,29.40
2018-05-04T12:24:39.933Z,29.40
2018-05-04T12:26:41.257Z,30.50
2018-05-04T12:28:42.227Z,30.50
2018-05-04T12:30:43.187Z,31.00
2018-05-04T12:32:44.130Z,28.90
2018-05-04T12:34:45.071Z,28.80
2018-05-04T12:36:46.033Z,30.20
2018-05-04T12:38:46.996Z,28.70
2018-05-04T12:40:47.930Z,28.40
2018-05-04T12:42:48.878Z,27.90
2018-05-04T12:44:49.827Z,27.00
2018-05-04T12:46:50.766Z,28.30
2018-05-04T12:48:51.718Z,29.10
2018-05-04T12:50:52.666Z,29.60
2018-05-04T12:52:53.613Z,29.90
2018-05-04T12:54:54.576Z,29.30
2018-05-04T12:56:55.517Z,27.60
2018-05-04T12:58:56.458Z,27.70
2018-05-04T13:00:57.413Z,28.90
2018-05-04T13:02:58.356Z,28.20
2018-05-04T13:04:59.302Z,26.70
2018-05-04T13:07:00.263Z,26.70
2018-05-04T13:09:01.588Z,28.30
2018-05-04T13:11:02.555Z,28.30
2018-05-04T13:13:03.511Z,27.70
2018-05-04T13:15:04.459Z,28.60
2018-05-04T13:17:05.405Z,28.40
2018-05-04T13:19:06.371Z,28.00
2018-05-04T13:21:07.695Z,26.10
2018-05-04T13:23:08.650Z,26.10
2018-05-04T13:25:09.966Z,26.20
2018-05-04T13:27:10.970Z,26.20
2018-05-04T13:29:11.948Z,26.40
2018-05-04T13:31:13.000Z,25.70
2018-05-04T13:33:14.313Z,25.40
2018-05-04T13:35:15.275Z,25.50
2018-05-04T13:37:16.646Z,26.60
2018-05-04T13:39:17.555Z,26.60
2018-05-04T13:41:18.502Z,25.60
2018-05-04T13:43:19.502Z,25.80
2018-05-04T13:45:20.451Z,26.10
2018-05-04T13:47:21.817Z,24.50
2018-05-04T13:49:22.766Z,24.50
2018-05-04T13:51:23.758Z,24.30
2018-05-04T13:53:24.706Z,24.00
2018-05-04T13:55:26.018Z,22.80
2018-05-04T13:57:26.973Z,22.80
2018-05-04T13:59:28.602Z,23.20
2018-05-04T14:01:29.569Z,23.20
2018-05-04T14:03:30.935Z,23.00
2018-05-04T14:05:31.918Z,23.00
2018-05-04T14:07:32.881Z,22.50
2018-05-04T14:09:34.181Z,22.10
2018-05-04T14:11:35.148Z,22.10
2018-05-04T14:13:37.763Z,24.70
2018-05-04T14:15:38.735Z,24.70
2018-05-04T14:17:39.738Z,22.60
2018-05-04T14:19:40.776Z,21.90
2018-05-04T14:21:41.734Z,21.70
2018-05-04T14:23:46.279Z,21.10
2018-05-04T14:25:47.342Z,21.80
2018-05-04T14:27:48.347Z,21.40
2018-05-04T14:29:49.710Z,22.00
2018-05-04T14:31:50.678Z,22.00
2018-05-04T14:33:51.631Z,20.80
2018-05-04T14:35:52.578Z,21.50
2018-05-04T14:37:53.542Z,23.10
2018-05-04T14:39:54.511Z,23.30
2018-05-04T14:41:55.476Z,23.20
2018-05-04T14:43:56.453Z,22.80
2018-05-04T14:45:57.480Z,22.80
2018-05-04T14:47:59.633Z,20.90
2018-05-04T14:50:00.966Z,22.60
2018-05-04T14:52:02.305Z,23.30
2018-05-04T14:54:03.256Z,23.30
2018-05-04T14:56:04.591Z,22.40
2018-05-04T14:58:05.562Z,22.40
2018-05-04T15:00:06.577Z,22.50
2018-05-04T15:02:08.009Z,24.30
2018-05-04T15:04:09.395Z,25.50
2018-05-04T15:06:10.280Z,25.50
2018-05-04T15:08:11.238Z,26.70
2018-05-04T15:10:12.555Z,28.50
2018-05-04T15:12:13.494Z,28.50
2018-05-04T15:14:14.605Z,29.70
2018-05-04T15:16:16.225Z,30.10
2018-05-04T15:18:17.161Z,30.60
2018-05-04T15:20:18.141Z,30.50
2018-05-04T15:22:19.078Z,30.60
2018-05-04T15:24:20.058Z,31.20
2018-05-04T15:26:21.017Z,31.40
2018-05-04T15:28:22.321Z,32.00
2018-05-04T15:30:23.275Z,33.30
2018-05-04T15:32:25.911Z,33.60
2018-05-04T15:34:45.104Z,33.50
2018-05-04T15:36:46.143Z,34.10
2018-05-04T15:38:47.129Z,34.40
2018-05-04T15:40:48.701Z,33.40
2018-05-04T15:42:50.043Z,34.20
2018-05-04T15:44:51.517Z,34.70
2018-05-04T15:46:52.499Z,34.70
2018-05-04T15:48:59.453Z,34.90
2018-05-04T15:51:06.530Z,34.70
2018-05-04T15:53:07.516Z,35.00
2018-05-04T15:55:08.510Z,34.00
2018-05-04T15:57:09.558Z,33.70
2018-05-04T15:59:10.525Z,34.50
2018-05-04T16:01:11.515Z,34.40
2018-05-04T16:03:12.598Z,34.80
2018-05-04T16:05:13.575Z,35.60
2018-05-04T16:07:14.610Z,36.00
2018-05-04T16:09:15.793Z,36.30
2018-05-04T16:11:17.154Z,36.00
2018-05-04T16:13:18.164Z,36.00
2018-05-04T16:15:19.591Z,35.80
2018-05-04T16:17:21.975Z,35.90
2018-05-04T16:19:22.958Z,35.70
2018-05-04T16:21:23.934Z,35.30
2018-05-04T16:23:25.021Z,35.20
2018-05-04T16:25:25.941Z,35.30
2018-05-04T16:27:26.930Z,36.40
2018-05-04T16:29:31.245Z,36.60
2018-05-04T16:31:32.261Z,36.30
2018-05-04T16:33:33.240Z,35.60
2018-05-04T16:35:34.609Z,35.70
2018-05-04T16:37:35.907Z,35.70
2018-05-04T16:39:36.883Z,36.10
2018-05-04T16:41:38.188Z,38.40
2018-05-04T16:43:39.186Z,38.20
2018-05-04T16:45:40.143Z,37.40
2018-05-04T16:47:47.123Z,37.20
2018-05-04T16:49:48.114Z,35.80
2018-05-04T16:51:49.094Z,37.10
2018-05-04T16:53:50.337Z,37.60
2018-05-04T16:55:51.355Z,37.10
2018-05-04T16:57:52.359Z,38.30
2018-05-04T16:59:53.606Z,39.10
2018-05-04T17:01:54.610Z,37.40
2018-05-04T17:03:56.103Z,37.90
2018-05-04T17:05:57.118Z,37.90
2018-05-04T17:07:58.117Z,38.40
2018-05-04T17:09:59.515Z,39.60
2018-05-04T17:12:00.519Z,39.60
2018-05-04T17:14:01.499Z,39.00
2018-05-04T17:16:02.528Z,38.30
2018-05-04T17:18:03.527Z,43.20
2018-05-04T17:20:04.544Z,44.50
2018-05-04T17:22:26.389Z,45.20
2018-05-04T17:24:27.802Z,45.70
2018-05-04T17:26:28.822Z,46.80
2018-05-04T17:28:29.832Z,47.00
2018-05-04T17:30:31.273Z,48.00
2018-05-04T17:32:32.290Z,48.10
2018-05-04T17:34:33.326Z,48.40
2018-05-04T17:36:34.349Z,49.00
2018-05-04T17:38:35.854Z,49.40
2018-05-04T17:40:36.838Z,49.40
2018-05-04T17:42:37.828Z,49.80
2018-05-04T17:44:38.814Z,50.00
2018-05-04T17:46:39.798Z,50.00
2018-05-04T17:48:40.837Z,49.80
2018-05-04T17:50:41.830Z,49.80
2018-05-04T17:52:42.813Z,50.10
2018-05-04T17:54:43.801Z,50.50
2018-05-04T17:56:44.801Z,50.10
2018-05-04T17:58:46.145Z,50.90
2018-05-04T18:00:47.499Z,51.00
2018-05-04T18:02:48.902Z,51.00
2018-05-04T18:04:49.907Z,51.00
2018-05-04T18:06:50.994Z,51.00
2018-05-04T18:08:51.975Z,50.90
2018-05-04T18:10:53.306Z,51.30
2018-05-04T18:12:54.294Z,51.30
2018-05-04T18:14:55.318Z,51.30
2018-05-04T18:16:56.298Z,51.00
2018-05-04T18:18:57.807Z,52.50
2018-05-04T18:20:58.785Z,51.30
2018-05-04T18:22:59.805Z,51.00
2018-05-04T18:25:01.186Z,51.10
2018-05-04T18:27:02.553Z,51.30
2018-05-04T18:29:03.537Z,51.30
2018-05-04T18:31:04.906Z,51.50
2018-05-04T18:33:06.253Z,51.50
2018-05-04T18:37:14.802Z,51.10
2018-05-04T18:39:15.811Z,52.40
2018-05-04T18:41:16.831Z,51.90
2018-05-04T18:43:17.816Z,52.10
2018-05-04T18:45:18.822Z,51.90
2018-05-04T18:47:19.790Z,52.10
2018-05-04T18:49:20.780Z,52.20
2018-05-04T18:51:21.834Z,52.10
2018-05-04T18:53:22.811Z,52.80
2018-05-04T18:55:24.166Z,52.60
2018-05-04T18:57:25.568Z,52.80
2018-05-04T18:59:26.791Z,52.80
2018-05-04T19:01:27.787Z,52.40
2018-05-04T19:03:29.122Z,53.30
2018-05-04T19:05:30.463Z,53.50
2018-05-04T19:07:31.895Z,53.20
2018-05-04T19:09:32.890Z,53.20
2018-05-04T19:11:33.899Z,53.30
2018-05-04T19:13:34.886Z,53.10
2018-05-04T19:15:36.067Z,53.20
2018-05-04T19:17:37.478Z,53.30
2018-05-04T19:19:38.586Z,53.30
2018-05-04T19:21:39.599Z,53.60
2018-05-04T19:23:40.608Z,53.70
2018-05-04T19:25:41.974Z,53.90
2018-05-04T19:27:42.974Z,53.90
2018-05-04T19:29:43.944Z,53.60
2018-05-04T19:31:45.042Z,53.40
2018-05-04T19:33:46.051Z,53.60
2018-05-04T19:35:47.052Z,53.50
2018-05-04T19:37:48.031Z,53.30
2018-05-04T19:39:49.094Z,53.50
2018-05-04T19:41:50.030Z,53.50
2018-05-04T19:43:58.219Z,53.20
2018-05-04T19:45:59.191Z,53.20
2018-05-04T19:48:00.189Z,52.60
2018-05-04T19:50:01.359Z,52.80
2018-05-04T19:52:02.322Z,52.60
2018-05-04T19:54:03.286Z,52.70
2018-05-04T19:56:04.275Z,52.60
2018-05-04T19:58:05.308Z,52.60
2018-05-04T20:00:06.329Z,52.80
2018-05-04T20:02:07.699Z,53.20
2018-05-04T20:04:08.678Z,53.20
2018-05-04T20:06:09.695Z,52.40
2018-05-04T20:08:10.718Z,52.30
2018-05-04T20:10:11.699Z,51.90
2018-05-04T20:12:12.747Z,52.10
2018-05-04T20:14:14.095Z,52.30
2018-05-04T20:16:15.444Z,52.40
2018-05-04T20:18:16.431Z,52.40
2018-05-04T20:20:17.591Z,51.70
2018-05-04T20:22:18.573Z,52.40
2018-05-04T20:24:19.538Z,52.10
2018-05-04T20:26:20.518Z,51.80
2018-05-04T20:28:21.910Z,52.10
2018-05-04T20:30:22.910Z,52.10
2018-05-04T20:32:23.987Z,51.90
2018-05-04T20:34:24.982Z,52.50
2018-05-04T20:36:25.967Z,52.80
2018-05-04T20:38:27.040Z,52.50
2018-05-04T20:40:28.392Z,52.50
2018-05-04T20:42:29.375Z,52.50
2018-05-04T20:44:30.371Z,52.60
2018-05-04T20:46:31.357Z,52.20
2018-05-04T20:48:32.340Z,52.70
2018-05-04T20:50:33.339Z,53.20
2018-05-04T20:52:34.333Z,53.60
2018-05-04T20:54:35.353Z,53.70
2018-05-04T20:56:36.339Z,53.20
2018-05-04T20:58:37.463Z,52.70
2018-05-04T21:00:38.463Z,52.80
2018-05-04T21:02:39.474Z,53.10
2018-05-04T21:04:40.835Z,52.80
2018-05-04T21:06:41.826Z,52.80
2018-05-04T21:10:50.429Z,52.90
2018-05-04T21:12:51.407Z,53.40
2018-05-04T21:14:52.801Z,53.40
2018-05-04T21:16:53.939Z,53.40
2018-05-04T21:18:55.031Z,52.80
2018-05-04T21:20:56.390Z,52.50
2018-05-04T21:22:57.743Z,52.50
2018-05-04T21:24:58.719Z,52.10
2018-05-04T21:26:59.809Z,52.50
2018-05-04T21:29:00.753Z,52.80
2018-05-04T21:31:01.738Z,52.70
2018-05-04T21:33:02.847Z,53.00
2018-05-04T21:35:03.918Z,53.00
2018-05-04T21:37:05.384Z,52.70
2018-05-04T21:39:06.467Z,52.70
2018-05-04T21:41:07.403Z,52.70
2018-05-04T21:43:08.382Z,52.90
2018-05-04T21:45:09.718Z,52.80
2018-05-04T21:47:11.072Z,52.90
2018-05-04T21:49:12.081Z,52.90
2018-05-04T21:51:13.219Z,52.70
2018-05-04T21:53:14.194Z,52.60
2018-05-04T21:55:15.215Z,52.80
2018-05-04T21:57:16.595Z,52.40
2018-05-04T21:59:17.591Z,52.40
2018-05-04T22:01:18.947Z,53.60
2018-05-04T22:03:19.937Z,53.60
2018-05-04T22:05:20.942Z,53.40
2018-05-04T22:07:21.925Z,53.60
2018-05-04T22:09:22.914Z,53.00
2018-05-04T22:11:23.914Z,53.10
2018-05-04T22:13:24.931Z,52.80
2018-05-04T22:15:26.374Z,52.70
2018-05-04T22:17:27.294Z,52.70
2018-05-04T22:19:28.667Z,52.60
2018-05-04T22:21:30.034Z,52.50
2018-05-04T22:23:31.018Z,52.50
2018-05-04T22:25:32.035Z,52.60
2018-05-04T22:27:33.031Z,52.70
2018-05-04T22:29:34.012Z,52.50
2018-05-04T22:31:35.008Z,52.70
2018-05-04T22:33:35.975Z,53.40
2018-05-04T22:35:36.958Z,53.20
2018-05-04T22:37:37.959Z,53.10
2018-05-04T22:39:38.983Z,53.90
2018-05-04T22:41:39.959Z,53.70
2018-05-04T22:43:41.294Z,54.60
2018-05-04T22:45:42.736Z,55.90
2018-05-04T22:47:43.726Z,55.90
2018-05-04T22:49:44.693Z,54.20
2018-05-04T22:51:45.694Z,53.50
2018-05-04T22:53:46.667Z,53.30
2018-05-04T22:55:47.637Z,53.10
2018-05-04T22:57:48.774Z,53.30
2018-05-04T22:59:49.742Z,53.80
2018-05-04T23:01:50.735Z,53.30
2018-05-04T23:03:52.073Z,53.40
2018-05-04T23:06:00.358Z,53.70
2018-05-04T23:08:01.323Z,53.70
2018-05-04T23:10:02.707Z,55.00
2018-05-04T23:12:10.586Z,55.00
2018-05-04T23:14:11.550Z,55.90
2018-05-04T23:16:12.582Z,57.10
2018-05-04T23:18:13.590Z,58.00
2018-05-04T23:20:14.593Z,57.40
2018-05-04T23:22:27.226Z,56.80
2018-05-04T23:24:28.218Z,56.80
2018-05-04T23:26:29.234Z,55.50
2018-05-04T23:28:30.198Z,54.80
2018-05-04T23:30:31.559Z,55.00
2018-05-04T23:32:33.105Z,57.10
2018-05-04T23:34:34.174Z,57.20
2018-05-04T23:36:35.095Z,58.30
2018-05-04T23:38:36.083Z,58.80
2018-05-04T23:40:37.129Z,60.00
2018-05-04T23:42:38.141Z,60.70
2018-05-04T23:44:39.154Z,60.90
2018-05-04T23:46:40.155Z,60.70
2018-05-04T23:48:41.150Z,58.80
2018-05-04T23:50:42.146Z,57.00
2018-05-04T23:52:43.538Z,55.40
2018-05-04T23:54:44.554Z,55.30
2018-05-04T23:56:45.566Z,54.70
2018-05-04T23:58:46.577Z,54.90
